createdAt,value
2022-08-12T00:00:40.959Z,91.50
2022-08-12T00:03:28.198Z,91.50
2022-08-12T00:06:22.132Z,91.60
2022-08-12T00:09:32.408Z,92.00
2022-08-12T00:12:24.964Z,91.80
2022-08-12T00:15:10.379Z,91.80
2022-08-12T00:18:04.096Z,91.80
2022-08-12T00:20:49.541Z,91.90
2022-08-12T00:23:43.010Z,92.00
2022-08-12T00:26:32.439Z,92.20
2022-08-12T00:29:25.010Z,92.20
2022-08-12T00:32:12.368Z,92.20
2022-08-12T00:35:23.571Z,92.30
2022-08-12T00:38:22.125Z,92.40
2022-08-12T00:41:08.740Z,92.40
2022-08-12T00:43:45.102Z,92.50
2022-08-12T00:46:31.108Z,92.60
2022-08-12T00:49:06.091Z,92.70
2022-08-12T00:51:48.360Z,92.70
2022-08-12T00:54:24.083Z,92.80
2022-08-12T00:56:55.222Z,92.90
2022-08-12T00:59:32.346Z,92.90
2022-08-12T01:02:11.074Z,93.10
2022-08-12T01:05:06.328Z,93.10
2022-08-12T01:07:54.760Z,93.20
2022-08-12T01:10:57.440Z,93.30
2022-08-12T01:13:26.924Z,93.40
2022-08-12T01:16:05.022Z,93.60
2022-08-12T01:18:35.502Z,93.70
2022-08-12T01:21:19.548Z,93.80
2022-08-12T01:24:30.117Z,93.90
2022-08-12T01:27:10.148Z,93.90
2022-08-12T01:29:47.463Z,94.20
2022-08-12T01:32:24.136Z,94.30
2022-08-12T01:34:58.918Z,94.50
2022-08-12T01:37:35.055Z,94.70
2022-08-12T01:40:34.980Z,94.70
2022-08-12T01:43:09.170Z,94.80
2022-08-12T01:45:57.526Z,94.70
2022-08-12T01:48:40.209Z,94.70
2022-08-12T01:52:15.507Z,94.80
2022-08-12T01:54:21.082Z,94.70
2022-08-12T01:56:53.811Z,94.80
2022-08-12T01:59:57.153Z,94.90
2022-08-12T02:02:33.743Z,94.90
2022-08-12T02:05:43.188Z,95.00
2022-08-12T02:08:52.293Z,95.10
2022-08-12T02:11:36.456Z,95.30
2022-08-12T02:14:26.250Z,95.50
2022-08-12T02:17:56.392Z,95.60
2022-08-12T02:20:35.501Z,95.70
2022-08-12T02:23:27.292Z,95.90
2022-08-12T02:26:01.898Z,96.00
2022-08-12T02:28:39.218Z,96.10
2022-08-12T02:31:09.323Z,96.20
2022-08-12T02:33:48.113Z,96.30
2022-08-12T02:36:26.096Z,96.30
2022-08-12T02:38:56.678Z,96.50
2022-08-12T02:41:34.216Z,96.50
2022-08-12T02:44:11.513Z,96.60
2022-08-12T02:46:50.137Z,96.70
2022-08-12T02:49:26.599Z,96.80
2022-08-12T02:52:01.123Z,97.00
2022-08-12T02:54:29.930Z,97.10
2022-08-12T02:57:06.419Z,97.10
2022-08-12T02:59:35.855Z,97.30
2022-08-12T03:02:13.224Z,97.40
2022-08-12T03:04:51.146Z,97.40
2022-08-12T03:07:33.562Z,97.50
2022-08-12T03:10:37.194Z,97.60
2022-08-12T03:13:15.228Z,97.70
2022-08-12T03:15:44.346Z,97.80
2022-08-12T03:18:28.785Z,97.90
2022-08-12T03:20:59.856Z,98.00
2022-08-12T03:23:36.238Z,98.10
2022-08-12T03:26:05.772Z,98.20
2022-08-12T03:29:03.469Z,98.30
2022-08-12T03:31:33.889Z,98.40
2022-08-12T03:34:11.177Z,98.60
2022-08-12T03:36:43.360Z,98.70
2022-08-12T03:39:35.870Z,98.70
2022-08-12T03:42:22.241Z,98.80
2022-08-12T03:45:22.169Z,99.00
2022-08-12T03:48:19.181Z,99.10
2022-08-12T03:51:13.181Z,99.10
2022-08-12T03:54:01.648Z,99.20
2022-08-12T03:56:55.274Z,99.30
2022-08-12T03:59:40.879Z,99.30
2022-08-12T04:02:15.270Z,99.30
2022-08-12T04:04:45.760Z,99.30
2022-08-12T04:07:23.501Z,99.50
2022-08-12T04:10:00.010Z,99.40
2022-08-12T04:12:53.195Z,99.50
2022-08-12T04:15:26.181Z,99.50
2022-08-12T04:18:06.392Z,99.60
2022-08-12T04:23:26.225Z,99.70
2022-08-12T04:25:56.211Z,99.80
2022-08-12T04:28:36.320Z,99.80
2022-08-12T04:31:05.161Z,99.80
2022-08-12T04:33:40.215Z,99.80
2022-08-12T04:36:09.765Z,99.90
2022-08-12T04:38:45.180Z,99.90
2022-08-12T04:41:15.969Z,99.90
2022-08-12T04:43:59.747Z,99.90
2022-08-12T04:46:30.868Z,99.90
2022-08-12T04:49:10.242Z,99.90
2022-08-12T04:51:42.198Z,99.90
2022-08-12T04:54:29.761Z,99.90
2022-08-12T04:57:04.055Z,99.90
2022-08-12T04:59:47.689Z,99.90
2022-08-12T05:02:20.461Z,99.90
2022-08-12T05:05:01.022Z,99.90
2022-08-12T05:07:30.243Z,99.90
2022-08-12T05:10:12.264Z,99.90
2022-08-12T05:12:56.454Z,99.90
2022-08-12T05:15:31.239Z,99.90
2022-08-12T05:17:59.697Z,99.90
2022-08-12T05:20:35.356Z,99.90
2022-08-12T05:23:16.277Z,99.90
2022-08-12T05:25:53.340Z,99.90
2022-08-12T05:28:24.202Z,99.90
2022-08-12T05:30:59.261Z,99.90
2022-08-12T05:33:33.317Z,99.90
2022-08-12T05:36:08.309Z,99.90
2022-08-12T05:38:54.544Z,99.90
2022-08-12T05:41:29.411Z,99.90
2022-08-12T05:44:01.006Z,99.90
2022-08-12T05:46:37.279Z,99.90
2022-08-12T05:49:06.417Z,99.90
2022-08-12T05:51:43.300Z,99.90
2022-08-12T05:54:12.691Z,99.80
2022-08-12T05:56:48.419Z,99.50
2022-08-12T05:59:18.415Z,99.50
2022-08-12T06:02:08.853Z,99.50
2022-08-12T06:04:42.145Z,99.10
2022-08-12T06:08:00.476Z,99.00
2022-08-12T06:10:15.323Z,98.80
2022-08-12T06:12:56.401Z,98.80
2022-08-12T06:15:26.689Z,98.50
2022-08-12T06:18:02.324Z,98.30
2022-08-12T06:20:34.404Z,98.20
2022-08-12T06:23:10.424Z,98.20
2022-08-12T06:25:39.175Z,98.10
2022-08-12T06:28:23.342Z,98.20
2022-08-12T06:33:56.052Z,98.10
2022-08-12T06:36:47.399Z,98.10
2022-08-12T06:39:20.162Z,98.00
2022-08-12T06:42:31.668Z,97.90
2022-08-12T06:45:02.599Z,97.70
2022-08-12T06:47:43.375Z,97.70
2022-08-12T06:50:16.501Z,97.30
2022-08-12T06:52:51.335Z,96.80
2022-08-12T06:55:25.530Z,97.10
2022-08-12T06:58:09.868Z,96.70
2022-08-12T07:00:39.790Z,96.70
2022-08-12T07:03:23.271Z,96.40
2022-08-12T07:05:52.428Z,96.20
2022-08-12T07:08:27.486Z,96.00
2022-08-12T07:11:04.386Z,95.70
2022-08-12T07:14:11.506Z,95.70
2022-08-12T07:16:47.431Z,95.40
2022-08-12T07:19:24.528Z,95.40
2022-08-12T07:22:13.646Z,95.20
2022-08-12T07:24:48.495Z,95.30
2022-08-12T07:27:17.511Z,94.70
2022-08-12T07:30:03.602Z,94.70
2022-08-12T07:32:36.197Z,94.60
2022-08-12T07:35:15.864Z,94.80
2022-08-12T07:37:45.730Z,94.30
2022-08-12T07:40:21.502Z,94.00
2022-08-12T07:42:52.200Z,94.00
2022-08-12T07:45:28.606Z,93.40
2022-08-12T07:47:57.601Z,93.40
2022-08-12T07:50:34.642Z,92.90
2022-08-12T07:53:04.489Z,93.20
2022-08-12T07:55:40.518Z,93.00
2022-08-12T07:58:09.089Z,92.80
2022-08-12T08:00:46.581Z,92.40
2022-08-12T08:03:17.178Z,92.00
2022-08-12T08:05:54.554Z,92.10
2022-08-12T08:08:26.153Z,92.40
2022-08-12T08:11:27.761Z,91.90
2022-08-12T08:13:56.097Z,92.20
2022-08-12T08:16:32.022Z,92.50
2022-08-12T08:19:00.977Z,92.30
2022-08-12T08:21:41.546Z,92.90
2022-08-12T08:24:15.946Z,92.00
2022-08-12T08:26:54.751Z,91.60
2022-08-12T08:29:23.968Z,92.00
2022-08-12T08:32:02.468Z,91.00
2022-08-12T08:34:53.023Z,90.80
2022-08-12T08:37:32.973Z,90.40
2022-08-12T08:40:23.723Z,88.90
2022-08-12T08:42:57.451Z,88.20
2022-08-12T08:45:25.810Z,88.50
2022-08-12T08:48:01.564Z,88.10
2022-08-12T08:50:30.226Z,87.30
2022-08-12T08:53:06.502Z,86.20
2022-08-12T08:56:03.165Z,86.10
2022-08-12T08:58:30.575Z,84.50
2022-08-12T09:00:59.998Z,85.70
2022-08-12T09:05:09.144Z,85.50
2022-08-12T09:06:37.166Z,84.50
2022-08-12T09:09:14.829Z,83.60
2022-08-12T09:12:11.729Z,83.60
2022-08-12T09:17:52.261Z,80.40
2022-08-12T09:20:29.417Z,80.80
2022-08-12T09:22:59.080Z,80.30
2022-08-12T09:25:38.499Z,80.40
2022-08-12T09:28:11.431Z,79.20
2022-08-12T09:30:52.608Z,77.50
2022-08-12T09:34:27.728Z,77.60
2022-08-12T09:36:31.339Z,76.30
2022-08-12T09:40:01.622Z,76.60
2022-08-12T09:42:38.693Z,76.90
2022-08-12T09:46:06.219Z,76.90
2022-08-12T09:48:23.817Z,74.30
2022-08-12T09:51:01.573Z,75.70
2022-08-12T09:53:39.641Z,73.70
2022-08-12T09:57:02.777Z,73.50
2022-08-12T09:59:09.625Z,74.10
2022-08-12T10:02:44.263Z,74.60
2022-08-12T10:04:34.756Z,74.40
2022-08-12T10:07:20.400Z,74.40
2022-08-12T10:10:00.498Z,73.40
2022-08-12T10:13:14.333Z,71.80
2022-08-12T10:16:00.796Z,71.00
2022-08-12T10:18:35.170Z,72.10
2022-08-12T10:21:18.873Z,71.80
2022-08-12T10:24:14.897Z,72.70
2022-08-12T10:27:14.203Z,72.20
2022-08-12T10:30:37.780Z,71.00
2022-08-12T10:32:44.511Z,71.50
2022-08-12T10:35:16.210Z,71.80
2022-08-12T10:38:34.681Z,72.20
2022-08-12T10:41:03.923Z,72.70
2022-08-12T10:43:55.203Z,72.50
2022-08-12T10:46:31.148Z,72.30
2022-08-12T10:50:03.079Z,71.80
2022-08-12T10:52:32.321Z,71.80
2022-08-12T10:54:57.669Z,70.20
2022-08-12T10:58:14.637Z,71.10
2022-08-12T11:00:33.666Z,71.20
2022-08-12T11:04:23.265Z,70.70
2022-08-12T11:07:09.011Z,70.90
2022-08-12T11:09:13.761Z,70.20
2022-08-12T11:12:36.793Z,70.50
2022-08-12T11:14:48.432Z,69.00
2022-08-12T11:17:43.847Z,69.50
2022-08-12T11:20:16.427Z,70.30
2022-08-12T11:23:24.645Z,68.60
2022-08-12T11:25:58.104Z,69.20
2022-08-12T11:28:37.159Z,67.60
2022-08-12T11:31:10.143Z,68.30
2022-08-12T11:34:04.920Z,68.50
2022-08-12T11:36:43.989Z,68.30
2022-08-12T11:39:42.365Z,68.10
2022-08-12T11:42:18.724Z,68.20
2022-08-12T11:45:00.734Z,67.00
2022-08-12T11:47:35.929Z,68.10
2022-08-12T11:50:11.892Z,67.20
2022-08-12T11:52:57.186Z,67.60
2022-08-12T11:55:29.648Z,66.90
2022-08-12T11:59:20.479Z,66.10
2022-08-12T12:03:54.691Z,66.00
2022-08-12T12:06:23.257Z,66.00
2022-08-12T12:09:00.608Z,66.30
2022-08-12T12:11:49.545Z,65.90
2022-08-12T12:14:38.173Z,64.50
2022-08-12T12:17:09.241Z,63.40
2022-08-12T12:19:46.336Z,64.10
2022-08-12T12:22:15.760Z,65.90
2022-08-12T12:24:58.962Z,65.70
2022-08-12T12:28:03.811Z,65.40
2022-08-12T12:30:41.016Z,65.60
2022-08-12T12:33:23.693Z,64.80
2022-08-12T12:36:18.754Z,65.10
2022-08-12T12:38:47.631Z,64.80
2022-08-12T12:41:22.675Z,65.80
2022-08-12T12:44:26.088Z,63.50
2022-08-12T12:47:28.686Z,63.50
2022-08-12T12:49:57.232Z,61.80
2022-08-12T12:52:32.015Z,62.60
2022-08-12T12:55:01.552Z,61.30
2022-08-12T12:57:59.528Z,62.00
2022-08-12T13:00:28.002Z,62.40
2022-08-12T13:03:03.809Z,62.50
2022-08-12T13:05:42.312Z,62.90
2022-08-12T13:08:35.705Z,63.10
2022-08-12T13:11:24.078Z,63.30
2022-08-12T13:14:28.891Z,62.60
2022-08-12T13:17:03.314Z,62.90
2022-08-12T13:19:46.615Z,64.50
2022-08-12T13:22:23.501Z,63.20
2022-08-12T13:25:01.849Z,64.00
2022-08-12T13:27:36.794Z,63.60
2022-08-12T13:30:17.797Z,63.10
2022-08-12T13:32:56.876Z,63.30
2022-08-12T13:36:05.112Z,63.00
2022-08-12T13:38:34.274Z,63.70
2022-08-12T13:41:11.830Z,63.80
2022-08-12T13:43:46.758Z,65.20
2022-08-12T13:46:18.406Z,64.50
2022-08-12T13:48:54.889Z,63.60
2022-08-12T13:51:24.630Z,62.80
2022-08-12T13:53:59.022Z,63.80
2022-08-12T13:56:40.924Z,63.00
2022-08-12T13:59:09.288Z,62.20
2022-08-12T14:01:45.009Z,63.30
2022-08-12T14:04:15.143Z,62.30
2022-08-12T14:06:52.763Z,63.10
2022-08-12T14:09:21.354Z,63.20
2022-08-12T14:12:02.892Z,62.90
2022-08-12T14:14:35.728Z,61.70
2022-08-12T14:17:19.805Z,61.60
2022-08-12T14:20:07.062Z,61.00
2022-08-12T14:22:49.716Z,62.30
2022-08-12T14:25:19.959Z,62.40
2022-08-12T14:28:03.707Z,61.30
2022-08-12T14:30:34.542Z,61.50
2022-08-12T14:33:11.132Z,61.20
2022-08-12T14:35:44.856Z,61.40
2022-08-12T14:38:26.330Z,60.90
2022-08-12T14:40:57.956Z,62.50
2022-08-12T14:43:59.002Z,62.90
2022-08-12T14:46:24.791Z,63.10
2022-08-12T14:49:11.444Z,60.60
2022-08-12T14:52:44.083Z,60.50
2022-08-12T14:58:00.048Z,61.00
2022-08-12T15:00:52.251Z,60.10
2022-08-12T15:03:52.566Z,60.50
2022-08-12T15:06:44.526Z,61.70
2022-08-12T15:09:29.214Z,63.50
2022-08-12T15:12:04.467Z,64.30
2022-08-12T15:14:37.873Z,65.00
2022-08-12T15:17:38.048Z,65.20
2022-08-12T15:20:31.429Z,65.00
2022-08-12T15:22:56.592Z,66.10
2022-08-12T15:25:40.147Z,66.90
2022-08-12T15:28:21.574Z,66.70
2022-08-12T15:30:59.795Z,65.00
2022-08-12T15:33:37.978Z,64.50
2022-08-12T15:36:36.569Z,64.80
2022-08-12T15:39:17.746Z,65.10
2022-08-12T15:41:49.431Z,65.60
2022-08-12T15:44:38.613Z,65.50
2022-08-12T15:47:10.753Z,65.70
2022-08-12T15:49:59.816Z,65.70
2022-08-12T15:52:30.657Z,64.70
2022-08-12T15:55:11.439Z,65.60
2022-08-12T15:57:52.979Z,65.70
2022-08-12T16:00:32.901Z,65.10
2022-08-12T16:03:05.299Z,65.10
2022-08-12T16:06:17.036Z,65.20
2022-08-12T16:08:36.500Z,64.30
2022-08-12T16:11:14.908Z,64.50
2022-08-12T16:13:45.243Z,64.70
2022-08-12T16:16:26.835Z,65.40
2022-08-12T16:18:59.503Z,64.60
2022-08-12T16:21:52.653Z,64.50
2022-08-12T16:24:22.961Z,64.50
2022-08-12T16:26:59.875Z,64.70
2022-08-12T16:29:52.050Z,64.50
2022-08-12T16:32:31.583Z,63.40
2022-08-12T16:35:00.823Z,63.10
2022-08-12T16:38:24.859Z,63.30
2022-08-12T16:40:28.237Z,63.20
2022-08-12T16:43:04.781Z,63.20
2022-08-12T16:46:08.008Z,63.20
2022-08-12T16:48:42.859Z,63.10
2022-08-12T16:51:12.699Z,62.80
2022-08-12T16:53:50.055Z,62.70
2022-08-12T16:56:18.278Z,63.40
2022-08-12T16:58:54.887Z,63.00
2022-08-12T17:01:24.510Z,63.00
2022-08-12T17:04:13.922Z,63.50
2022-08-12T17:06:43.424Z,64.10
2022-08-12T17:09:20.880Z,63.50
2022-08-12T17:11:50.303Z,63.70
2022-08-12T17:14:25.897Z,63.40
2022-08-12T17:17:18.517Z,64.40
2022-08-12T17:20:29.202Z,65.00
2022-08-12T17:22:56.459Z,63.30
2022-08-12T17:25:32.925Z,63.20
2022-08-12T17:28:02.310Z,62.80
2022-08-12T17:30:38.900Z,63.50
2022-08-12T17:33:16.968Z,64.50
2022-08-12T17:35:52.921Z,63.60
2022-08-12T17:38:21.270Z,64.30
2022-08-12T17:40:58.940Z,64.40
2022-08-12T17:43:54.566Z,63.00
2022-08-12T17:46:33.661Z,64.70
2022-08-12T17:49:06.569Z,64.80
2022-08-12T17:51:50.215Z,64.10
2022-08-12T17:54:19.042Z,64.50
2022-08-12T17:56:54.943Z,64.60
2022-08-12T17:59:47.965Z,65.20
2022-08-12T18:02:29.908Z,65.50
2022-08-12T18:05:10.688Z,65.50
2022-08-12T18:07:39.467Z,65.50
2022-08-12T18:10:15.002Z,65.90
2022-08-12T18:12:51.076Z,65.90
2022-08-12T18:16:04.393Z,66.20
2022-08-12T18:18:31.154Z,66.30
2022-08-12T18:21:10.000Z,66.90
2022-08-12T18:23:50.865Z,67.00
2022-08-12T18:26:30.989Z,67.70
2022-08-12T18:28:59.735Z,67.60
2022-08-12T18:31:44.267Z,68.00
2022-08-12T18:34:28.579Z,68.30
2022-08-12T18:37:24.294Z,68.30
2022-08-12T18:40:14.408Z,68.50
2022-08-12T18:42:54.402Z,68.50
2022-08-12T18:45:31.539Z,68.60
2022-08-12T18:48:22.985Z,69.00
2022-08-12T18:51:04.154Z,69.10
2022-08-12T18:54:06.245Z,69.80
2022-08-12T18:56:33.330Z,70.10
2022-08-12T18:59:10.989Z,71.10
2022-08-12T19:02:21.841Z,70.50
2022-08-12T19:04:37.122Z,71.00
2022-08-12T19:07:08.191Z,71.00
2022-08-12T19:09:57.779Z,71.30
2022-08-12T19:12:55.343Z,72.00
2022-08-12T19:15:32.087Z,72.50
2022-08-12T19:18:16.956Z,72.50
2022-08-12T19:20:52.039Z,72.50
2022-08-12T19:23:21.321Z,73.00
2022-08-12T19:26:00.202Z,73.30
2022-08-12T19:28:35.612Z,73.40
2022-08-12T19:31:57.511Z,73.80
2022-08-12T19:35:33.024Z,73.80
2022-08-12T19:38:03.451Z,74.10
2022-08-12T19:40:31.879Z,74.20
2022-08-12T19:43:17.943Z,74.60
2022-08-12T19:45:57.349Z,75.20
2022-08-12T19:48:27.960Z,75.40
2022-08-12T19:51:09.335Z,75.50
2022-08-12T19:53:57.948Z,76.00
2022-08-12T19:56:34.066Z,76.10
2022-08-12T19:59:22.131Z,76.50
2022-08-12T20:02:02.871Z,76.40
2022-08-12T20:04:32.690Z,76.30
2022-08-12T20:07:07.060Z,76.20
2022-08-12T20:09:39.907Z,76.30
2022-08-12T20:12:19.526Z,76.30
2022-08-12T20:15:00.066Z,76.30
2022-08-12T20:17:50.663Z,76.30
2022-08-12T20:20:21.289Z,76.30
2022-08-12T20:23:08.610Z,76.40
2022-08-12T20:25:52.665Z,76.50
2022-08-12T20:28:32.116Z,76.70
2022-08-12T20:31:09.109Z,77.00
2022-08-12T20:33:55.904Z,77.10
2022-08-12T20:36:41.189Z,76.90
2022-08-12T20:39:34.149Z,76.90
2022-08-12T20:42:12.097Z,77.00
2022-08-12T20:44:42.360Z,77.10
2022-08-12T20:47:20.763Z,77.30
2022-08-12T20:49:55.851Z,77.50
2022-08-12T20:52:37.078Z,77.40
2022-08-12T20:55:15.377Z,77.30
2022-08-12T20:58:02.997Z,77.30
2022-08-12T21:00:33.324Z,77.30
2022-08-12T21:03:23.454Z,77.70
2022-08-12T21:06:13.889Z,77.50
2022-08-12T21:08:49.127Z,77.80
2022-08-12T21:11:22.749Z,77.90
2022-08-12T21:13:59.480Z,78.10
2022-08-12T21:16:35.769Z,77.90
2022-08-12T21:19:22.506Z,78.20
2022-08-12T21:21:54.799Z,79.10
2022-08-12T21:24:34.128Z,78.40
2022-08-12T21:27:04.622Z,78.50
2022-08-12T21:29:50.144Z,78.60
2022-08-12T21:32:40.135Z,78.70
2022-08-12T21:35:18.985Z,78.90
2022-08-12T21:37:53.332Z,79.20
2022-08-12T21:40:37.680Z,79.80
2022-08-12T21:43:16.498Z,79.80
2022-08-12T21:46:00.636Z,80.10
2022-08-12T21:48:29.496Z,80.10
2022-08-12T21:51:22.715Z,80.30
2022-08-12T21:54:07.558Z,80.40
2022-08-12T21:56:37.960Z,80.90
2022-08-12T21:59:14.531Z,80.80
2022-08-12T22:01:48.586Z,81.00
2022-08-12T22:04:42.325Z,81.30
2022-08-12T22:07:19.216Z,81.30
2022-08-12T22:10:05.174Z,81.70
2022-08-12T22:12:34.774Z,81.80
2022-08-12T22:15:21.271Z,82.10
2022-08-12T22:17:57.598Z,82.40
2022-08-12T22:20:33.174Z,82.50
2022-08-12T22:23:07.661Z,83.00
2022-08-12T22:25:56.214Z,83.00
2022-08-12T22:28:41.498Z,83.20
2022-08-12T22:31:19.214Z,83.40
2022-08-12T22:33:54.057Z,83.50
2022-08-12T22:36:33.220Z,83.60
2022-08-12T22:39:02.825Z,83.50
2022-08-12T22:41:56.851Z,83.60
2022-08-12T22:44:52.790Z,84.30
2022-08-12T22:47:54.131Z,83.40
2022-08-12T22:50:27.744Z,83.30
2022-08-12T22:53:21.216Z,83.50
2022-08-12T22:55:59.132Z,83.40
2022-08-12T22:58:43.253Z,83.50
2022-08-12T23:01:21.072Z,83.70
2022-08-12T23:03:56.244Z,83.90
2022-08-12T23:06:27.018Z,84.00
2022-08-12T23:09:03.238Z,84.00
2022-08-12T23:11:33.927Z,84.30
2022-08-12T23:14:14.243Z,84.20
2022-08-12T23:16:51.681Z,84.40
2022-08-12T23:19:45.719Z,84.70
2022-08-12T23:23:05.844Z,84.60
2022-08-12T23:25:19.081Z,84.60
2022-08-12T23:28:29.920Z,84.90
2022-08-12T23:31:04.830Z,84.90
2022-08-12T23:34:00.555Z,85.10
2022-08-12T23:36:39.134Z,85.30
2022-08-12T23:40:13.644Z,85.60
2022-08-12T23:42:18.232Z,85.50
2022-08-12T23:45:00.382Z,85.60
2022-08-12T23:47:32.044Z,85.70
2022-08-12T23:50:16.361Z,86.10
2022-08-12T23:52:46.581Z,86.00
2022-08-12T23:55:24.785Z,85.90
2022-08-12T23:58:21.590Z,86.00
